Weather observations for the past three days for
Akhiok
Metric (Imperial)
Date Time (akdt) Wind (kph) Vis. (km) Weather Sky Cond. Temperature (ºC) Relative Humidity Wind Chill (°C) Heat Index (°C) Pressure Precipitation (cm)
Air Dwpt 6 hour altimeter (cm) sea level (mb) 1 hr 3 hr 6 hr
Max. Min.
02 10:56 S 11 0.00 Mostly Cloudy FEW010 SCT031 BKN042 0 0 0% 76.28 0.0
02 09:56 SE 9 0.00 Overcast SCT010 BKN028 OVC038 0 0 0% 76.28 0.0
02 08:56 E 6 0.00 Overcast BKN018 OVC040 0 0 0% 76.25 0.0
02 07:56 Calm 0.00 Overcast OVC018 0 0 0% 76.2 0.0
02 06:56 SW 11 0.00 Overcast OVC016 0 0 0% 76.15 0.0
02 05:56 E 7 0.00 Overcast OVC031 0 0 0% 76.1 0.0
02 04:56 SW 11 0.00 Overcast OVC025 0 0 0% 76.1 0.0
02 03:56 SW 20 0.00 Overcast OVC023 0 0 0% 76.05 0.0
02 02:56 SW 24 G 33 0.00 Overcast OVC027 0 0 0% 75.97 0.0
02 01:56 S 20 G 30 0.00 Overcast BKN022 OVC028 0 0 0% 75.9 0.0
02 00:56 SW 24 G 35 0.00 Overcast BKN017 OVC027 0 0 0% 75.79 0.0
01 23:56 SW 20 G 35 0.00 Overcast SCT022 OVC027 0 0 0% 75.69 0.0
01 22:56 SW 19 0.00 Overcast SCT016 BKN023 OVC033 0 0 0% 75.59 0.0
01 21:56 SW 30 G 43 0.00 Overcast BKN021 OVC037 0 0 0% 75.49 0.0
01 20:56 SW 33 G 50 0.00 Overcast and Breezy BKN019 OVC032 0 0 0% 75.39 0.0
01 19:56 SW 35 G 48 0.00 Mostly Cloudy and Breezy BKN017 BKN042 0 0 0% 75.31 0.0
01 18:56 SW 24 0.00 Overcast BKN017 BKN023 OVC034 0 0 0% 75.21 0.0
01 17:56 SW 30 G 46 0.00 Overcast BKN015 BKN030 OVC038 0 0 0% 75.13 0.0
01 16:56 SW 26 G 35 0.00 Overcast BKN015 OVC035 0 0 0% 75.03 0.0
01 15:56 S 20 G 35 0.00 Overcast BKN013 OVC020 0 0 0% 74.98 0.0
01 14:56 SW 24 G 37 0.00 Overcast OVC015 0 0 0% 74.9 0.0
01 13:56 SW 28 G 39 0.00 Overcast OVC013 0 0 0% 74.85 0.0
01 12:56 SW 24 G 41 0.00 Overcast OVC009 0 0 0% 74.78 0.0
01 11:56 S 19 0.00 Overcast OVC003 0 0 0% 74.7 0.0
01 10:56 SE 7 0.00 Overcast OVC005 0 0 0% 74.63 0.0
01 09:56 SE 7 0.00 Overcast BKN006 OVC011 0 0 0% 74.57 0.0
01 08:56 E 13 0.00 Overcast OVC006 0 0 0% 74.57 0.0
01 07:56 E 13 0.00 Overcast OVC006 0 0 0% 74.57 0.0
01 06:56 E 11 0.00 Overcast OVC006 0 0 0% 74.57 0.0
01 05:56 E 13 0.00 Overcast OVC008 0 0 0% 74.6 0.0
01 04:56 E 13 0.00 Overcast OVC008 0 0 0% 74.63 0.0
01 03:56 E 19 0.00 Overcast OVC008 0 0 0% 74.68 0.0
01 02:56 E 22 G 33 0.00 Overcast OVC008 0 0 0% 74.75 0.0
01 01:56 SE 22 0.00 Overcast OVC008 0 0 0% 74.85 0.0
01 00:56 SE 24 0.00 Overcast OVC006 0 0 0% 74.93 0.0
30 23:56 SE 15 0.00 Overcast OVC006 0 0 0% 74.98 0.0
30 22:56 SE 24 G 33 0.00 Overcast OVC002 0 0 0% 74.98 0.0
30 21:56 SE 24 0.00 Overcast OVC004 0 0 0% 75.01 0.0
30 19:56 SE 28 G 39 0.00 Overcast OVC004 0 0 0% 75.03 0.0
30 18:56 SE 28 G 43 0.00 Overcast OVC004 0 0 0% 75.06 0.0
30 17:56 SE 24 0.00 Overcast OVC004 0 0 0% 75.08 0.0
30 16:56 SE 28 G 35 0.00 Overcast OVC004 0 0 0% 75.13 0.0
30 15:56 SE 28 G 41 0.00 Overcast OVC006 0 0 0% 75.21 0.0
30 14:56 SE 28 G 41 0.00 Overcast OVC006 0 0 0% 75.23 0.0
30 13:56 SE 30 G 39 0.00 Overcast OVC006 0 0 0% 75.26 0.0
30 12:56 SE 31 G 44 0.00 Overcast OVC006 0 0 0% 75.31 0.0
30 11:56 SE 30 G 41 0.00 Overcast OVC006 0 0 0% 75.36 0.0
30 10:56 SE 24 G 39 0.00 Overcast OVC006 0 0 0% 75.41 0.0
30 09:56 E 26 0.00 Overcast OVC006 0 0 0% 75.46 0.0
30 08:56 E 30 G 35 0.00 Overcast OVC006 0 0 0% 75.51 0.0
30 07:56 E 30 G 44 0.00 Overcast OVC010 0 0 0% 75.57 0.0
30 06:56 E 26 G 52 0.00 Overcast OVC012 0 0 0% 75.64 0.0
30 05:56 E 28 G 50 0.00 Overcast OVC012 0 0 0% 75.72 0.0
30 04:56 SE 30 G 44 0.00 Overcast OVC014 0 0 0% 75.77 0.0
30 03:56 SE 28 G 41 0.00 Overcast OVC014 0 0 0% 75.82 0.0
30 02:56 SE 24 G 37 0.00 Overcast BKN014 OVC020 0 0 0% 75.9 0.0
30 01:56 SE 31 G 41 0.00 Overcast OVC015 0 0 0% 75.95 0.0
30 00:56 SE 22 0.00 Overcast BKN014 BKN025 OVC065 0 0 0% 76 0.0
29 23:56 SE 20 0.00 Overcast FEW019 BKN048 OVC070 0 0 0% 76.02 0.0
29 22:56 SE 19 0.00 Overcast OVC075 0 0 0% 76.05 0.0
29 21:56 SE 17 0.00 Overcast OVC090 0 0 0% 76.05 0.0
29 20:56 SE 19 0.00 Overcast FEW018 BKN045 OVC085 0 0 0% 76.07 0.0
29 19:56 S 22 0.00 Partly Cloudy FEW019 SCT090 0 0 0% 76.1 0.0
29 18:56 S 19 0.00 A Few Clouds FEW049 0 0 0% 76.1 0.0
29 17:56 S 17 0.00 Mostly Cloudy SCT032 BKN041 0 0 0% 76.12 0.0
29 16:56 S 15 0.00 Mostly Cloudy SCT035 BKN045 0 0 0% 76.15 0.0
29 15:56 S 17 0.00 A Few Clouds FEW020 0 0 0% 76.17 0.0
29 14:56 S 13 0.00 Overcast BKN022 BKN028 OVC036 0 0 0% 76.2 0.0
29 13:56 SW 19 0.00 Overcast FEW020 OVC041 0 0 0% 76.2 0.0
29 12:56 SW 15 0.00 Overcast SCT021 SCT028 OVC042 0 0 0% 76.23 0.0
29 11:56 S 11 0.00 Overcast SCT019 OVC040 0 0 0% 76.2 0.0
Date Time (akdt) Wind (kph) Vis. (km) Weather Sky Cond. Air Dwpt Max. Min. Relative Humidity Wind Chill (°C) Heat Index (°C) altimeter (cm) sea level (mb) 1 hr 3 hr 6 hr
6 hour
Temperature (ºC) Pressure Precipitation (cm)